Skip Navigation Links Skip Navigation Links

Current Weather

Marshall County, Lacon, Ill.

For information only: do not use for flight planning or navigation.
Latest weather
Observation time Sunday, May 31, 2020 7:55 AM CDT
Local time Sunday, May 31, 2020 8:13 AM CDT
Flight conditions Visual Meteorological Conditions
Winds
Wind direction East (100°)
Wind speed 8 mph
Visibility 10 mi.
Sky condition
Ceiling unlimited
Sky clear
Temperature 57°F
Dewpoint 47°F
Altimeter 30.33 in.Hg
Derived measurements
Relative humidity 70%
Density altitude 104 ft.
Remarks
Fully automated report.
Automated weather observing station with precipitation discriminator.
METAR KC75 311255Z AUTO 10007KT 10SM CLR 14/08 A3033 RMK AO2 T01370083

Settings

Location code

InnerDrive.Weather 4.0.6770.0 Release CLR 4.0.30319.42000
Copyright ©2018 Inner Drive Technology. All rights reserved. Portions Copyright ©1986-2018 David Braverman.

Find weather

Site navigation


Skip Navigation Links

Place info

Page info

PayPal - The safer, easier way to pay online!

Return home.

Copyright ©2020 Inner Drive Technology. Purveyors of fine, hand-crafted computer software. Page printed 2020-05-31T13:13:53 UTC.